Time;durP1;ratioP1;P1;durP2;ratioP2;P2;SDS_P1;SDS_P2;PMS_P1;PMS_P2;Temp;Humidity;BMP_temperature;BMP_pressure;BME280_temperature;BME280_humidity;BME280_pressure;Samples;Min_cycle;Max_cycle;Signal;HPM_P1;HPM_P2
2021/12/07 00:00:37;;;;;;;73.63;25.40;;;1.70;99.90;;;;;;5114804;27;20116;-73
2021/12/07 00:03:03;;;;;;;94.18;26.40;;;1.60;99.90;;;;;;5114904;27;20031;-72
2021/12/07 00:05:29;;;;;;;89.00;25.67;;;1.50;99.90;;;;;;5110503;27;20027;-71
2021/12/07 00:07:54;;;;;;;89.85;26.23;;;1.50;99.90;;;;;;5111413;27;20407;-70
2021/12/07 00:10:20;;;;;;;84.60;25.17;;;1.40;99.90;;;;;;5097077;27;20066;-69
2021/12/07 00:12:46;;;;;;;84.07;27.88;;;1.40;99.90;;;;;;5108033;27;20074;-69
2021/12/07 00:15:16;;;;;;;92.93;28.38;;;1.40;99.90;;;;;;5115022;27;20378;-70
2021/12/07 00:17:43;;;;;;;82.72;26.95;;;1.40;99.90;;;;;;5115137;27;20474;-68
2021/12/07 00:20:16;;;;;;;79.03;26.77;;;1.40;99.90;;;;;;5094325;28;20151;-69
2021/12/07 00:22:45;;;;;;;87.68;28.20;;;1.30;99.90;;;;;;5112689;27;20035;-69
2021/12/07 00:25:11;;;;;;;96.25;27.33;;;1.30;99.90;;;;;;5097448;27;20027;-68
2021/12/07 00:27:37;;;;;;;89.80;28.00;;;1.30;99.90;;;;;;5112989;27;20126;-69
2021/12/07 00:30:05;;;;;;;96.85;27.75;;;1.30;99.90;;;;;;5097201;27;20134;-68
2021/12/07 00:32:34;;;;;;;88.97;28.13;;;1.20;99.90;;;;;;5110252;27;20050;-68
2021/12/07 00:37:29;;;;;;;83.07;27.75;;;1.20;99.90;;;;;;5109278;27;20082;-69
2021/12/07 00:39:55;;;;;;;103.63;29.75;;;1.20;99.90;;;;;;5110999;27;20046;-68
2021/12/07 00:42:21;;;;;;;106.75;28.90;;;1.20;99.90;;;;;;5113669;27;20035;-68
2021/12/07 00:44:47;;;;;;;102.07;30.25;;;1.20;99.90;;;;;;5112067;27;20516;-69
2021/12/07 00:47:12;;;;;;;92.72;28.33;;;1.20;99.90;;;;;;5113969;27;20059;-69
2021/12/07 00:49:38;;;;;;;90.57;28.60;;;1.10;99.90;;;;;;5115848;27;20037;-69
2021/12/07 00:52:04;;;;;;;86.80;28.77;;;1.10;99.90;;;;;;5115178;27;20047;-69
2021/12/07 00:54:30;;;;;;;96.53;28.00;;;1.10;99.90;;;;;;5098719;27;20039;-69
2021/12/07 00:56:56;;;;;;;111.15;29.65;;;1.10;99.90;;;;;;5116408;27;20039;-69
2021/12/07 00:59:21;;;;;;;99.82;26.77;;;1.10;99.90;;;;;;5112175;27;20050;-68
2021/12/07 01:01:47;;;;;;;92.28;28.75;;;1.10;99.90;;;;;;5113094;27;20043;-69
2021/12/07 01:04:13;;;;;;;107.47;29.13;;;1.10;99.90;;;;;;5114439;27;20035;-69
2021/12/07 01:06:49;;;;;;;83.13;26.92;;;1.10;99.90;;;;;;5114896;27;20035;-69
2021/12/07 01:26:05;;;;;;;81.95;25.55;;;1.10;99.90;;;;;;5066698;27;20503;-71
2021/12/07 01:28:36;;;;;;;95.05;26.70;;;1.00;99.90;;;;;;5108103;27;20035;-71
2021/12/07 01:31:29;;;;;;;95.65;25.98;;;1.00;99.90;;;;;;5107251;27;20440;-71
2021/12/07 01:34:38;;;;;;;66.72;23.40;;;1.00;99.90;;;;;;5111866;27;20039;-71
2021/12/07 01:37:04;;;;;;;75.18;24.08;;;1.00;99.90;;;;;;5109666;27;20091;-71
2021/12/07 01:39:52;;;;;;;69.28;22.90;;;1.00;99.90;;;;;;5112806;27;20039;-72
2021/12/07 02:00:57;;;;;;;53.88;17.83;;;1.10;99.90;;;;;;5083072;27;20074;-71
2021/12/07 02:03:24;;;;;;;58.25;18.20;;;1.10;99.90;;;;;;5096201;27;20031;-71
2021/12/07 02:05:50;;;;;;;57.30;17.77;;;1.20;99.90;;;;;;5103717;27;20039;-71
2021/12/07 02:08:16;;;;;;;56.33;17.67;;;1.20;99.90;;;;;;5113099;27;20039;-71
2021/12/07 02:10:42;;;;;;;53.22;17.05;;;1.20;99.90;;;;;;5111705;27;20042;-71
2021/12/07 02:13:22;;;;;;;52.30;16.33;;;1.20;99.90;;;;;;5112725;27;20528;-70
2021/12/07 02:15:48;;;;;;;49.50;16.40;;;1.20;99.90;;;;;;5093035;27;20035;-70
2021/12/07 02:18:14;;;;;;;49.58;15.90;;;1.20;99.90;;;;;;5112373;27;20110;-74
2021/12/07 02:20:40;;;;;;;53.75;16.80;;;1.20;99.90;;;;;;5093277;27;20134;-70
2021/12/07 02:23:06;;;;;;;55.47;17.60;;;1.20;99.90;;;;;;5111390;27;20039;-71
2021/12/07 02:25:32;;;;;;;53.60;15.93;;;1.30;99.90;;;;;;5110860;28;20039;-72
2021/12/07 02:27:59;;;;;;;58.40;17.02;;;1.20;99.90;;;;;;5107742;28;20064;-71
2021/12/07 02:30:26;;;;;;;54.35;16.75;;;1.30;99.90;;;;;;5112193;28;20035;-72
2021/12/07 02:32:54;;;;;;;54.80;16.92;;;1.20;99.90;;;;;;5107961;27;20061;-74
2021/12/07 02:35:26;;;;;;;46.17;15.43;;;1.20;99.90;;;;;;5087924;27;20112;-73
2021/12/07 02:37:53;;;;;;;50.40;16.15;;;1.20;99.90;;;;;;5102673;27;20080;-74
2021/12/07 02:40:19;;;;;;;51.72;16.95;;;1.20;99.90;;;;;;5101624;28;20478;-75
2021/12/07 02:42:45;;;;;;;51.58;16.65;;;1.20;99.90;;;;;;5093798;28;20035;-73
2021/12/07 02:45:11;;;;;;;48.55;16.17;;;1.20;99.90;;;;;;5095363;28;20047;-76
2021/12/07 02:47:36;;;;;;;53.10;16.58;;;1.10;99.90;;;;;;5110318;28;20047;-76
2021/12/07 02:50:04;;;;;;;54.58;17.65;;;1.10;99.90;;;;;;5108107;28;20031;-76
2021/12/07 02:52:30;;;;;;;58.30;17.63;;;1.20;99.90;;;;;;5111819;28;20084;-77
2021/12/07 02:54:55;;;;;;;61.65;18.30;;;1.20;99.90;;;;;;5111920;28;20038;-74
2021/12/07 02:57:23;;;;;;;56.00;16.98;;;1.20;99.90;;;;;;5108988;28;20081;-74
2021/12/07 02:59:59;;;;;;;52.25;16.75;;;1.20;99.90;;;;;;5111973;28;20110;-77
2021/12/07 03:02:25;;;;;;;57.60;17.23;;;1.20;99.90;;;;;;5108142;27;20059;-77
2021/12/07 03:05:07;;;;;;;51.65;17.15;;;1.20;99.90;;;;;;5111376;28;20028;-72
2021/12/07 03:07:49;;;;;;;59.85;17.60;;;1.30;99.90;;;;;;5112746;28;20503;-72
2021/12/07 03:26:29;;;;;;;54.70;16.38;;;1.20;99.90;;;;;;5111888;28;20470;-72
2021/12/07 03:28:58;;;;;;;49.13;15.70;;;1.20;99.90;;;;;;5111327;28;20326;-73
2021/12/07 03:31:26;;;;;;;54.08;16.27;;;1.20;99.90;;;;;;5111551;28;20058;-74
2021/12/07 03:33:53;;;;;;;52.78;16.50;;;1.20;99.90;;;;;;5114104;27;20650;-73
2021/12/07 03:36:20;;;;;;;51.55;15.90;;;1.20;99.90;;;;;;5095711;27;20046;-73
2021/12/07 03:38:46;;;;;;;46.35;15.70;;;1.20;99.90;;;;;;5115306;27;20042;-72
2021/12/07 03:41:12;;;;;;;47.17;15.25;;;1.20;99.90;;;;;;5108455;27;20501;-71
2021/12/07 03:43:39;;;;;;;47.50;15.77;;;1.10;99.90;;;;;;5112758;27;20436;-70
2021/12/07 03:46:05;;;;;;;48.03;15.93;;;1.10;99.90;;;;;;5114505;27;20038;-71
2021/12/07 03:48:31;;;;;;;54.33;16.63;;;1.10;99.90;;;;;;5114616;27;20031;-71
2021/12/07 03:50:57;;;;;;;53.75;16.70;;;1.10;99.90;;;;;;5094110;27;20031;-71
2021/12/07 03:53:22;;;;;;;47.80;15.82;;;1.00;99.90;;;;;;5107273;27;20413;-71
2021/12/07 03:55:48;;;;;;;51.22;15.70;;;1.10;99.90;;;;;;5115371;27;20470;-71
2021/12/07 03:58:14;;;;;;;49.97;16.35;;;1.00;99.90;;;;;;5114014;27;20382;-70
2021/12/07 04:00:44;;;;;;;55.30;15.70;;;1.00;99.90;;;;;;5111899;27;20487;-70
2021/12/07 04:03:13;;;;;;;52.78;16.27;;;1.10;99.90;;;;;;5112863;27;20042;-70
2021/12/07 04:05:45;;;;;;;57.80;16.92;;;1.10;99.90;;;;;;5113393;27;20032;-70
2021/12/07 04:08:14;;;;;;;52.85;15.68;;;1.10;99.90;;;;;;5113549;27;20043;-71
2021/12/07 04:10:39;;;;;;;49.53;16.23;;;1.20;99.90;;;;;;5114254;27;20035;-70
2021/12/07 04:13:05;;;;;;;52.63;17.50;;;1.10;99.90;;;;;;5114579;27;20035;-71
2021/12/07 04:15:31;;;;;;;52.05;15.95;;;1.20;99.90;;;;;;5098183;27;20035;-71
2021/12/07 04:17:56;;;;;;;47.28;16.10;;;1.20;99.90;;;;;;5115322;27;20375;-71
2021/12/07 04:20:22;;;;;;;44.55;15.32;;;1.20;99.90;;;;;;5092509;27;20035;-71
2021/12/07 04:22:48;;;;;;;43.65;15.40;;;1.20;99.90;;;;;;5098061;27;20565;-71
2021/12/07 04:25:16;;;;;;;44.85;15.52;;;1.30;99.90;;;;;;5115124;27;20115;-71
2021/12/07 04:27:43;;;;;;;46.22;15.63;;;1.30;99.90;;;;;;5112938;27;20043;-71
2021/12/07 04:30:16;;;;;;;43.83;14.57;;;1.30;99.90;;;;;;5115073;27;20114;-71
2021/12/07 04:32:42;;;;;;;62.58;17.60;;;1.30;99.90;;;;;;5115641;27;20047;-70
2021/12/07 04:35:10;;;;;;;47.00;14.82;;;1.30;99.90;;;;;;5113483;27;20491;-71
2021/12/07 04:37:36;;;;;;;53.30;15.70;;;1.20;99.90;;;;;;5114379;27;20482;-71
2021/12/07 04:40:03;;;;;;;44.85;14.48;;;1.20;99.90;;;;;;5111087;27;20041;-70
2021/12/07 04:42:29;;;;;;;47.58;14.68;;;1.10;99.90;;;;;;5112975;27;20031;-70
2021/12/07 04:44:59;;;;;;;47.65;15.18;;;1.10;99.90;;;;;;5110813;27;20039;-71
2021/12/07 04:48:00;;;;;;;46.55;14.35;;;1.10;99.90;;;;;;5111284;27;20481;-70
2021/12/07 04:50:44;;;;;;;54.00;15.40;;;1.10;99.90;;;;;;5107335;27;20392;-70
2021/12/07 04:58:37;;;;;;;53.63;15.50;;;1.00;99.90;;;;;;5112991;27;20119;-71
2021/12/07 05:01:09;;;;;;;47.85;14.63;;;0.90;99.90;;;;;;5114495;27;20477;-70
2021/12/07 05:03:36;;;;;;;47.63;15.20;;;0.90;99.90;;;;;;5106262;27;20031;-70
2021/12/07 05:06:03;;;;;;;44.30;14.55;;;0.90;99.90;;;;;;5113862;27;20035;-70
2021/12/07 05:11:24;;;;;;;50.67;14.48;;;0.90;99.90;;;;;;5113058;27;20046;-70
2021/12/07 05:16:45;;;;;;;47.20;14.88;;;1.00;99.90;;;;;;5108795;27;20138;-71
2021/12/07 05:23:54;;;;;;;47.47;14.20;;;1.10;99.90;;;;;;5111409;27;20470;-71
2021/12/07 05:25:07;;;;;;;43.97;13.52;;;1.10;99.90;;;;;;5111457;27;20074;-69
2021/12/07 05:38:30;;;;;;;46.20;13.40;;;1.10;99.90;;;;;;5109705;27;20588;-70
2021/12/07 05:40:56;;;;;;;48.28;13.93;;;1.10;99.90;;;;;;5109571;27;20133;-70
2021/12/07 05:43:22;;;;;;;53.40;15.02;;;1.00;99.90;;;;;;5109441;27;20512;-71
2021/12/07 05:45:47;;;;;;;45.70;13.25;;;1.10;99.90;;;;;;5101796;27;20042;-70
2021/12/07 05:48:13;;;;;;;55.53;14.25;;;1.00;99.90;;;;;;5109138;27;20490;-70
2021/12/07 05:50:40;;;;;;;45.75;14.02;;;1.00;99.90;;;;;;5111489;27;20642;-69
2021/12/07 05:53:08;;;;;;;53.45;15.10;;;1.00;99.90;;;;;;5094095;27;20471;-72
2021/12/07 05:55:35;;;;;;;57.90;15.68;;;1.00;99.90;;;;;;5110046;27;20055;-70
2021/12/07 05:58:00;;;;;;;45.40;14.80;;;1.00;99.90;;;;;;5111628;27;20043;-70
2021/12/07 06:00:29;;;;;;;48.78;13.73;;;1.00;99.90;;;;;;5107261;27;20045;-71
2021/12/07 06:03:03;;;;;;;55.25;15.13;;;1.00;99.90;;;;;;5111350;27;20046;-70
2021/12/07 06:05:30;;;;;;;52.10;14.75;;;1.00;99.90;;;;;;5110611;27;20076;-71
2021/12/07 06:07:56;;;;;;;52.20;14.55;;;1.00;99.90;;;;;;5107766;27;20038;-70
2021/12/07 06:10:23;;;;;;;53.95;14.77;;;1.00;99.90;;;;;;5111139;27;20031;-70
2021/12/07 06:12:48;;;;;;;51.25;14.13;;;1.00;99.90;;;;;;5103632;27;20081;-69
2021/12/07 06:15:18;;;;;;;54.28;14.88;;;0.90;99.90;;;;;;5110200;27;20054;-70
2021/12/07 06:17:44;;;;;;;53.95;15.10;;;0.90;99.90;;;;;;5093007;27;20113;-70
2021/12/07 06:20:10;;;;;;;54.33;14.85;;;0.90;99.90;;;;;;5093833;27;20046;-70
2021/12/07 06:22:36;;;;;;;53.17;14.55;;;0.80;99.90;;;;;;5122993;27;20185;-70
2021/12/07 06:25:03;;;;;;;58.60;15.65;;;0.80;99.90;;;;;;5111210;27;20088;-70
2021/12/07 06:27:29;;;;;;;55.80;15.13;;;0.80;99.90;;;;;;5111733;27;20509;-70
2021/12/07 06:29:54;;;;;;;61.55;14.95;;;0.80;99.90;;;;;;5091154;27;20089;-70
2021/12/07 06:32:20;;;;;;;58.40;14.90;;;0.90;99.90;;;;;;5111177;28;20050;-70
2021/12/07 06:34:46;;;;;;;57.22;15.63;;;0.90;99.90;;;;;;5109129;28;20396;-69
2021/12/07 06:37:11;;;;;;;60.33;16.45;;;0.80;99.90;;;;;;5110842;28;20038;-70
2021/12/07 06:39:37;;;;;;;52.30;13.95;;;0.80;99.90;;;;;;5109176;28;20119;-70
2021/12/07 06:42:03;;;;;;;53.72;14.80;;;0.80;99.90;;;;;;5107382;28;20051;-70
2021/12/07 06:44:29;;;;;;;55.33;14.35;;;0.80;99.90;;;;;;5110789;28;20043;-70
2021/12/07 06:46:54;;;;;;;54.90;14.57;;;0.80;99.90;;;;;;5109642;28;20054;-70
2021/12/07 06:49:20;;;;;;;56.95;14.73;;;0.70;99.90;;;;;;5110283;28;20047;-70
2021/12/07 06:51:47;;;;;;;47.45;13.68;;;0.70;99.90;;;;;;5106436;28;20031;-70
2021/12/07 06:54:13;;;;;;;49.83;13.45;;;0.80;99.90;;;;;;5106789;28;20097;-70
2021/12/07 06:56:39;;;;;;;50.00;13.10;;;0.80;99.90;;;;;;5090637;28;20501;-70
2021/12/07 06:59:05;;;;;;;51.50;13.18;;;0.80;99.90;;;;;;5106832;28;20187;-70
2021/12/07 07:01:32;;;;;;;47.22;13.88;;;0.80;99.90;;;;;;5110781;28;20134;-70
2021/12/07 07:03:58;;;;;;;52.00;13.18;;;0.80;99.90;;;;;;5091806;28;20494;-71
2021/12/07 07:06:24;;;;;;;50.05;13.52;;;0.80;99.90;;;;;;5109290;28;20039;-71
2021/12/07 07:08:52;;;;;;;55.90;13.45;;;0.90;99.90;;;;;;5109497;27;20043;-69
2021/12/07 07:11:18;;;;;;;54.10;13.30;;;1.00;99.90;;;;;;5099392;27;20058;-71
2021/12/07 07:13:48;;;;;;;55.25;14.57;;;1.00;99.90;;;;;;5097685;27;20039;-71
2021/12/07 07:16:15;;;;;;;49.55;13.60;;;1.10;99.90;;;;;;5115746;27;20035;-73
2021/12/07 07:18:41;;;;;;;52.20;12.50;;;1.10;99.90;;;;;;5115694;27;20050;-72
2021/12/07 07:21:07;;;;;;;49.03;11.35;;;1.20;99.90;;;;;;5111722;27;20035;-73
2021/12/07 07:23:34;;;;;;;55.90;12.27;;;1.30;99.90;;;;;;5112901;27;20095;-72
2021/12/07 07:26:00;;;;;;;47.25;12.80;;;1.30;99.90;;;;;;5115835;27;20035;-73
2021/12/07 07:28:28;;;;;;;51.60;12.55;;;1.30;99.90;;;;;;5116013;27;20312;-71
2021/12/07 07:30:54;;;;;;;52.92;12.10;;;1.40;99.90;;;;;;5113764;27;20066;-72
2021/12/07 07:33:19;;;;;;;42.78;12.07;;;1.40;99.90;;;;;;5115937;27;20031;-70
2021/12/07 07:35:45;;;;;;;43.95;11.80;;;1.40;99.90;;;;;;5109870;27;20515;-71
2021/12/07 07:38:11;;;;;;;50.92;12.65;;;1.30;99.90;;;;;;5105235;27;20386;-71
2021/12/07 07:40:36;;;;;;;47.55;10.93;;;1.30;99.90;;;;;;5113849;27;20031;-71
2021/12/07 07:43:02;;;;;;;45.65;10.50;;;1.30;99.90;;;;;;5114393;27;20135;-70
2021/12/07 07:45:28;;;;;;;40.83;11.38;;;1.30;99.90;;;;;;5113643;27;20274;-71
2021/12/07 07:47:54;;;;;;;42.67;10.85;;;1.30;99.90;;;;;;5114587;27;20727;-70
2021/12/07 07:50:21;;;;;;;45.63;10.65;;;1.30;99.90;;;;;;5117477;27;20035;-71
2021/12/07 07:52:46;;;;;;;38.53;10.88;;;1.30;99.90;;;;;;5112338;27;20050;-70
2021/12/07 07:55:13;;;;;;;45.58;10.63;;;1.30;99.90;;;;;;5113840;27;20402;-70
2021/12/07 07:57:39;;;;;;;43.28;11.23;;;1.30;99.90;;;;;;5112706;28;20565;-69
2021/12/07 08:00:08;;;;;;;36.45;10.05;;;1.20;99.90;;;;;;5115677;27;20035;-70
2021/12/07 08:02:34;;;;;;;38.83;9.80;;;1.20;99.90;;;;;;5116159;27;20041;-70
2021/12/07 08:05:00;;;;;;;37.80;10.70;;;1.20;99.90;;;;;;5111274;28;20551;-71
2021/12/07 08:07:25;;;;;;;40.28;10.50;;;1.10;99.90;;;;;;5102406;27;20474;-70
2021/12/07 08:09:51;;;;;;;35.13;10.25;;;1.10;99.90;;;;;;5116347;27;20042;-70
2021/12/07 08:12:16;;;;;;;37.90;10.68;;;1.10;99.90;;;;;;5115035;27;20486;-70
2021/12/07 08:14:42;;;;;;;46.97;10.55;;;1.10;99.90;;;;;;5115579;27;20439;-70
2021/12/07 08:17:08;;;;;;;40.83;10.18;;;1.10;99.90;;;;;;5121401;27;20077;-70
2021/12/07 08:19:36;;;;;;;38.75;10.38;;;1.10;99.90;;;;;;5113535;27;20047;-70
2021/12/07 08:22:02;;;;;;;38.72;10.20;;;1.10;99.90;;;;;;5115868;27;20119;-70
2021/12/07 08:24:27;;;;;;;42.75;10.48;;;1.20;99.90;;;;;;5115982;27;20048;-70
2021/12/07 08:26:53;;;;;;;38.90;10.50;;;1.20;99.90;;;;;;5109448;28;20051;-70
2021/12/07 08:29:19;;;;;;;32.90;10.07;;;1.20;99.90;;;;;;5096500;28;20389;-70
2021/12/07 08:31:44;;;;;;;39.65;9.65;;;1.20;99.90;;;;;;5083496;27;20045;-70
2021/12/07 08:34:10;;;;;;;47.53;10.27;;;1.30;99.90;;;;;;5116674;27;20043;-69
2021/12/07 08:36:36;;;;;;;38.33;10.00;;;1.30;99.90;;;;;;5099945;27;20056;-69
2021/12/07 08:39:03;;;;;;;41.90;10.88;;;1.30;99.90;;;;;;5115675;27;20057;-70
2021/12/07 08:41:38;;;;;;;46.35;11.35;;;1.30;99.90;;;;;;5117516;27;20043;-70
2021/12/07 08:44:04;;;;;;;38.05;10.43;;;1.40;99.90;;;;;;5117383;27;20051;-70
2021/12/07 08:46:29;;;;;;;36.03;9.98;;;1.40;99.90;;;;;;5112549;28;20040;-70
2021/12/07 08:48:55;;;;;;;39.42;10.07;;;1.40;99.90;;;;;;5113709;28;20047;-69
2021/12/07 08:51:20;;;;;;;37.47;10.45;;;1.40;99.90;;;;;;5113229;28;20043;-70
2021/12/07 08:53:56;;;;;;;41.65;9.82;;;1.50;99.90;;;;;;5117100;27;20473;-70
2021/12/07 09:01:51;;;;;;;45.47;9.27;;;1.50;99.90;;;;;;5096775;28;20516;-69
2021/12/07 09:04:19;;;;;;;34.00;9.50;;;1.50;99.90;;;;;;5079848;28;20039;-69
2021/12/07 09:06:46;;;;;;;42.13;9.95;;;1.60;99.90;;;;;;5096660;28;20041;-70
2021/12/07 09:09:12;;;;;;;39.78;9.77;;;1.70;99.90;;;;;;5097145;28;20082;-70
2021/12/07 09:11:38;;;;;;;35.92;9.73;;;1.70;99.90;;;;;;5097017;28;20075;-69
2021/12/07 09:14:03;;;;;;;43.60;9.57;;;1.70;99.90;;;;;;5096793;28;20406;-69
2021/12/07 09:16:30;;;;;;;37.47;9.32;;;1.70;99.90;;;;;;5097934;27;20046;-69
2021/12/07 09:18:56;;;;;;;40.20;9.85;;;1.80;99.90;;;;;;5117008;27;20088;-70
2021/12/07 09:21:21;;;;;;;37.28;9.13;;;1.80;99.90;;;;;;5112738;27;20050;-70
2021/12/07 09:23:48;;;;;;;36.92;10.15;;;1.90;99.90;;;;;;5099685;27;20035;-70
2021/12/07 09:26:14;;;;;;;47.55;9.63;;;1.90;99.90;;;;;;5117020;27;20031;-70
2021/12/07 09:28:41;;;;;;;42.28;9.43;;;1.90;99.90;;;;;;5115803;27;20130;-71
2021/12/07 09:31:10;;;;;;;33.30;9.77;;;2.00;99.90;;;;;;5098679;27;20490;-71
2021/12/07 09:33:41;;;;;;;34.45;9.35;;;2.00;99.90;;;;;;5106886;27;20055;-70
2021/12/07 09:36:09;;;;;;;30.92;9.63;;;2.00;99.90;;;;;;5109920;27;20031;-70
2021/12/07 09:38:36;;;;;;;42.45;9.32;;;2.10;99.90;;;;;;5109679;28;20032;-71
2021/12/07 09:41:03;;;;;;;39.90;9.73;;;2.20;99.90;;;;;;5109331;27;20047;-70
2021/12/07 09:43:30;;;;;;;28.60;8.82;;;2.20;99.90;;;;;;5109341;28;20039;-70
2021/12/07 09:45:56;;;;;;;36.95;9.02;;;2.30;99.90;;;;;;5112810;27;20114;-70
2021/12/07 09:48:21;;;;;;;34.35;9.30;;;2.30;99.90;;;;;;5113573;27;20113;-71
2021/12/07 09:50:50;;;;;;;38.47;10.25;;;2.40;99.90;;;;;;5113040;27;20027;-71
2021/12/07 09:53:17;;;;;;;36.03;9.20;;;2.40;99.90;;;;;;5104416;27;20125;-71
2021/12/07 09:55:45;;;;;;;35.97;9.52;;;2.40;99.90;;;;;;5093553;27;20400;-71
2021/12/07 09:58:11;;;;;;;38.40;10.02;;;2.40;99.90;;;;;;5111517;27;20126;-70
2021/12/07 10:00:38;;;;;;;33.95;9.07;;;2.50;99.90;;;;;;5108546;27;20122;-70
2021/12/07 10:03:04;;;;;;;34.45;9.50;;;2.50;99.90;;;;;;5113001;27;20043;-70
2021/12/07 10:05:31;;;;;;;36.00;9.98;;;2.60;99.90;;;;;;5111499;27;20045;-71
2021/12/07 10:07:58;;;;;;;35.28;8.80;;;2.60;99.90;;;;;;5119661;27;20401;-69
2021/12/07 10:10:27;;;;;;;34.63;10.20;;;2.70;99.90;;;;;;5111225;27;20109;-71
2021/12/07 10:12:53;;;;;;;34.78;9.00;;;2.70;99.90;;;;;;5111476;27;20155;-71
2021/12/07 10:15:19;;;;;;;34.83;9.65;;;2.70;99.90;;;;;;5112321;27;20063;-70
2021/12/07 10:18:14;;;;;;;32.13;10.32;;;2.80;99.90;;;;;;5114734;27;20539;-69
2021/12/07 10:20:48;;;;;;;35.13;9.90;;;2.90;99.90;;;;;;5112239;27;20039;-71
2021/12/07 10:23:14;;;;;;;32.58;9.68;;;2.90;99.90;;;;;;5110744;28;20062;-70
2021/12/07 10:25:41;;;;;;;43.20;10.07;;;3.00;99.90;;;;;;5113023;27;20058;-71
2021/12/07 10:28:36;;;;;;;34.63;9.88;;;3.00;99.90;;;;;;5112079;27;20039;-70
2021/12/07 10:31:25;;;;;;;33.67;9.63;;;3.10;99.90;;;;;;5110459;27;20495;-70
2021/12/07 10:33:54;;;;;;;29.92;9.45;;;3.20;99.90;;;;;;5111632;27;20043;-70
2021/12/07 10:36:35;;;;;;;38.13;10.63;;;3.20;99.90;;;;;;5115107;28;20040;-72
2021/12/07 10:39:10;;;;;;;34.83;10.48;;;3.30;99.90;;;;;;5109347;28;20035;-70
2021/12/07 10:41:48;;;;;;;38.92;9.75;;;3.30;99.90;;;;;;5097584;28;20078;-71
2021/12/07 10:44:17;;;;;;;36.80;10.82;;;3.40;99.90;;;;;;5115890;27;20065;-70
2021/12/07 10:46:58;;;;;;;27.13;9.65;;;3.40;99.90;;;;;;5097938;27;20562;-72
2021/12/07 10:49:34;;;;;;;34.35;10.40;;;3.50;99.90;;;;;;5117234;27;20078;-72
2021/12/07 10:52:32;;;;;;;33.38;9.65;;;3.60;99.90;;;;;;5116084;27;20100;-72
2021/12/07 10:55:16;;;;;;;32.92;9.52;;;3.60;99.90;;;;;;5120729;27;20070;-72
2021/12/07 10:58:12;;;;;;;40.83;10.75;;;3.60;99.90;;;;;;5115165;27;20035;-73
2021/12/07 11:00:43;;;;;;;28.35;10.18;;;3.80;99.90;;;;;;5112705;27;20421;-71
2021/12/07 11:03:17;;;;;;;42.28;10.40;;;3.80;99.90;;;;;;5115334;27;20066;-74
2021/12/07 11:05:54;;;;;;;39.17;9.48;;;3.90;99.90;;;;;;5116010;27;20502;-72
2021/12/07 11:08:22;;;;;;;30.02;9.75;;;4.00;99.90;;;;;;5097372;27;20047;-73
2021/12/07 11:10:49;;;;;;;32.97;9.77;;;4.00;99.90;;;;;;5114823;27;20072;-72
2021/12/07 11:13:26;;;;;;;31.17;9.55;;;4.10;99.90;;;;;;5112505;27;20048;-71
2021/12/07 11:15:56;;;;;;;35.17;9.77;;;4.10;99.90;;;;;;5105852;27;20048;-74
2021/12/07 11:18:34;;;;;;;39.88;10.55;;;4.20;99.90;;;;;;5106577;27;20035;-75
2021/12/07 11:21:07;;;;;;;27.27;9.40;;;4.30;99.90;;;;;;5110371;27;20035;-74
2021/12/07 11:23:45;;;;;;;34.15;9.38;;;4.30;99.90;;;;;;5095782;27;20054;-76
2021/12/07 11:31:44;;;;;;;30.23;9.82;;;4.40;99.90;;;;;;5112305;27;20116;-74
2021/12/07 11:34:17;;;;;;;24.48;9.20;;;4.50;99.90;;;;;;5110216;27;20043;-74
2021/12/07 11:37:03;;;;;;;32.47;9.00;;;4.50;99.90;;;;;;5129225;27;20035;-74
2021/12/07 11:39:34;;;;;;;28.38;9.05;;;4.60;99.90;;;;;;5110023;27;20043;-75
2021/12/07 11:42:28;;;;;;;37.00;9.70;;;4.60;99.90;;;;;;5117463;27;20063;-73
2021/12/07 11:44:56;;;;;;;27.08;9.25;;;4.70;99.90;;;;;;5109813;27;20075;-74
2021/12/07 11:47:39;;;;;;;31.13;9.43;;;4.70;99.90;;;;;;5111330;27;20031;-74
2021/12/07 11:50:14;;;;;;;;;;;4.80;99.90;;;;;;5112827;27;20038;-74
2021/12/07 11:52:40;;;;;;;31.08;9.05;;;4.90;99.90;;;;;;5109404;27;19933;-73
2021/12/07 11:55:06;;;;;;;33.28;9.35;;;4.90;99.90;;;;;;5113193;27;20062;-72
2021/12/07 11:57:32;;;;;;;30.50;9.40;;;5.00;99.90;;;;;;5114320;27;20471;-73
2021/12/07 11:59:58;;;;;;;29.60;8.65;;;5.00;99.90;;;;;;5112600;27;20125;-73
2021/12/07 12:02:24;;;;;;;32.28;9.23;;;5.10;99.90;;;;;;5114857;27;20402;-73
2021/12/07 12:04:50;;;;;;;23.55;8.35;;;5.10;99.90;;;;;;5111096;27;20043;-72
2021/12/07 12:07:16;;;;;;;33.92;8.80;;;5.20;99.90;;;;;;5102395;28;20035;-73
2021/12/07 12:09:48;;;;;;;26.05;7.90;;;5.30;99.90;;;;;;5117596;27;20470;-76
2021/12/07 12:12:32;;;;;;;30.67;7.63;;;5.30;99.90;;;;;;5107915;27;20054;-72
2021/12/07 12:15:24;;;;;;;21.92;7.55;;;5.40;99.90;;;;;;5105524;27;20043;-75
2021/12/07 12:18:36;;;;;;;28.55;7.95;;;5.40;99.90;;;;;;5114309;27;20091;-75
2021/12/07 12:21:31;;;;;;;26.58;8.07;;;5.40;99.90;;;;;;5110828;27;20042;-75
2021/12/07 12:24:24;;;;;;;28.77;8.88;;;5.40;99.90;;;;;;5097543;27;20043;-74
2021/12/07 12:27:08;;;;;;;27.88;9.55;;;5.40;99.90;;;;;;5110436;27;20043;-74
2021/12/07 12:29:36;;;;;;;31.85;9.20;;;5.30;99.90;;;;;;5112904;27;20550;-75
2021/12/07 12:32:03;;;;;;;27.17;9.15;;;5.30;99.90;;;;;;5095624;27;20113;-74
2021/12/07 12:34:37;;;;;;;29.40;9.20;;;5.30;99.90;;;;;;5114086;27;20470;-75
2021/12/07 12:37:15;;;;;;;32.13;9.55;;;5.30;99.90;;;;;;5113091;27;20039;-74
2021/12/07 12:39:53;;;;;;;29.92;9.98;;;5.20;99.90;;;;;;5114070;27;20390;-75
2021/12/07 12:42:41;;;;;;;30.00;9.35;;;5.20;99.90;;;;;;5111798;27;20035;-75
2021/12/07 12:45:23;;;;;;;33.95;9.25;;;5.20;99.90;;;;;;5112299;27;20039;-73
2021/12/07 12:47:59;;;;;;;28.63;9.32;;;5.20;99.90;;;;;;5096682;27;20045;-75
2021/12/07 12:50:31;;;;;;;26.02;9.88;;;5.20;99.90;;;;;;5111521;27;20059;-74
2021/12/07 12:53:13;;;;;;;31.15;9.55;;;5.20;99.90;;;;;;5114403;27;20532;-74
2021/12/07 12:55:48;;;;;;;26.08;9.25;;;5.20;99.90;;;;;;5107399;27;20327;-75
2021/12/07 12:58:20;;;;;;;31.05;10.77;;;5.20;99.90;;;;;;5114355;27;20088;-75
2021/12/07 13:01:12;;;;;;;27.48;9.43;;;5.10;99.90;;;;;;5110408;27;20042;-74
2021/12/07 13:03:42;;;;;;;28.13;10.27;;;5.10;99.90;;;;;;5114077;27;20126;-74
2021/12/07 13:06:15;;;;;;;32.80;10.80;;;5.10;99.90;;;;;;5094440;27;20039;-74
2021/12/07 13:09:00;;;;;;;37.90;11.13;;;5.10;99.90;;;;;;5112182;27;20046;-75
2021/12/07 13:11:34;;;;;;;30.95;11.38;;;5.10;99.90;;;;;;5094963;27;20043;-76
2021/12/07 13:14:01;;;;;;;32.97;11.98;;;5.10;99.90;;;;;;5113520;27;20039;-73
2021/12/07 13:16:26;;;;;;;40.65;12.80;;;5.10;99.90;;;;;;5111099;27;20062;-75
2021/12/07 13:19:07;;;;;;;38.28;12.93;;;5.10;99.90;;;;;;5113224;27;20047;-74
2021/12/07 13:21:41;;;;;;;40.25;14.52;;;5.00;99.90;;;;;;5111983;27;20043;-74
2021/12/07 13:24:08;;;;;;;41.17;14.70;;;5.00;99.90;;;;;;5096423;27;20035;-75
2021/12/07 13:26:40;;;;;;;39.10;13.93;;;5.00;99.90;;;;;;5112611;27;20070;-74
2021/12/07 13:29:18;;;;;;;39.80;14.50;;;4.90;99.90;;;;;;5093017;28;20451;-75
2021/12/07 13:31:51;;;;;;;39.22;14.60;;;4.90;99.90;;;;;;5094137;27;20280;-73
2021/12/07 13:34:28;;;;;;;47.55;15.95;;;4.80;99.90;;;;;;5111935;27;20070;-74
2021/12/07 13:36:54;;;;;;;49.65;15.80;;;4.80;99.90;;;;;;5098768;27;20431;-74
2021/12/07 13:39:21;;;;;;;47.55;15.65;;;4.80;99.90;;;;;;5110671;27;20430;-74
2021/12/07 13:41:50;;;;;;;44.70;16.23;;;4.70;99.90;;;;;;5110341;27;20065;-74
2021/12/07 13:44:16;;;;;;;44.97;16.60;;;4.70;99.90;;;;;;5110748;27;20039;-75
2021/12/07 13:46:42;;;;;;;58.97;16.52;;;4.60;99.90;;;;;;5112659;27;20034;-72
2021/12/07 13:49:10;;;;;;;47.22;17.65;;;4.60;99.90;;;;;;5109332;27;20035;-73
2021/12/07 13:51:37;;;;;;;48.97;16.08;;;4.60;99.90;;;;;;5105841;27;20031;-72
2021/12/07 13:54:04;;;;;;;48.60;16.30;;;4.50;99.90;;;;;;5109791;27;22186;-72
2021/12/07 13:56:39;;;;;;;48.15;16.70;;;4.50;99.90;;;;;;5108107;27;20061;-72
2021/12/07 13:59:07;;;;;;;54.85;16.80;;;4.40;99.90;;;;;;5109518;27;20046;-72
2021/12/07 14:01:35;;;;;;;44.67;16.25;;;4.40;99.90;;;;;;5108653;27;20042;-73
2021/12/07 14:04:02;;;;;;;45.78;17.00;;;4.30;99.90;;;;;;5111254;27;20074;-72
2021/12/07 14:06:29;;;;;;;50.75;16.67;;;4.30;99.90;;;;;;5110157;27;20045;-73
2021/12/07 14:09:08;;;;;;;45.15;16.95;;;4.30;99.90;;;;;;5108398;27;20035;-73
2021/12/07 14:11:35;;;;;;;47.78;17.10;;;4.20;99.90;;;;;;5110683;27;20050;-72
2021/12/07 14:14:02;;;;;;;51.42;16.65;;;4.20;99.90;;;;;;5112515;27;20141;-72
2021/12/07 14:16:28;;;;;;;45.75;17.67;;;4.10;99.90;;;;;;5108452;27;20077;-72
2021/12/07 14:18:54;;;;;;;46.58;17.70;;;4.10;99.90;;;;;;5088375;27;20362;-72
2021/12/07 14:21:20;;;;;;;50.85;17.92;;;4.10;99.90;;;;;;5111270;27;20046;-72
2021/12/07 14:24:02;;;;;;;55.95;17.73;;;4.00;99.90;;;;;;5093147;27;20027;-71